Terminal Aerodrome Forecast
Issued by NWS

Home | Current Version | Previous Version | Text Only | Print | Product List | Glossary On
Versions: 1 2 3 4 5 6 7 8 9 10 11 12 13 14 15 16
000
FTAK31 PAJN 221700
TAFAWG
TAF
PAWG 221723Z 2218/2318 12014KT P6SM VCSH BKN045
     FM230000 12005KT P6SM BKN060
     FM230700 12008KT P6SM VCSH BKN040 OVC060
     FM231100 12008KT P6SM -RA BKN040 OVC060
      AMD LTD TO CLD VIS AND WIND 2306/2315=

USA.gov is the U.S. government's official web portal to all federal, state and local government web resources and services.